sensor_id;sensor_type;location;lat;lon;timestamp;pressure;altitude;pressure_sealevel;temperature;humidity
2675;BME280;1347;42.122;24.746;2023-01-04T00:02:12;100443.66;;;4.14;100.00
2675;BME280;1347;42.122;24.746;2023-01-04T00:04:38;100452.91;;;4.13;100.00
2675;BME280;1347;42.122;24.746;2023-01-04T00:07:05;100449.06;;;4.14;100.00
2675;BME280;1347;42.122;24.746;2023-01-04T00:09:32;100451.19;;;4.17;100.00
2675;BME280;1347;42.122;24.746;2023-01-04T00:12:00;100458.81;;;4.15;100.00
2675;BME280;1347;42.122;24.746;2023-01-04T00:14:27;100457.50;;;4.12;100.00
2675;BME280;1347;42.122;24.746;2023-01-04T00:16:54;100460.34;;;4.07;100.00
2675;BME280;1347;42.122;24.746;2023-01-04T00:19:21;100462.13;;;3.98;100.00
2675;BME280;1347;42.122;24.746;2023-01-04T00:21:48;100463.94;;;3.89;100.00
2675;BME280;1347;42.122;24.746;2023-01-04T00:24:15;100466.16;;;3.87;100.00
2675;BME280;1347;42.122;24.746;2023-01-04T00:26:42;100459.72;;;3.69;100.00
2675;BME280;1347;42.122;24.746;2023-01-04T00:29:11;100466.25;;;3.68;100.00
2675;BME280;1347;42.122;24.746;2023-01-04T00:31:38;100478.63;;;3.74;100.00
2675;BME280;1347;42.122;24.746;2023-01-04T00:34:06;100480.91;;;3.67;100.00
2675;BME280;1347;42.122;24.746;2023-01-04T00:36:33;100474.78;;;3.61;100.00
2675;BME280;1347;42.122;24.746;2023-01-04T00:39:01;100475.06;;;3.46;100.00
2675;BME280;1347;42.122;24.746;2023-01-04T00:41:35;100470.44;;;3.33;100.00
2675;BME280;1347;42.122;24.746;2023-01-04T00:44:04;100472.22;;;3.24;100.00
2675;BME280;1347;42.122;24.746;2023-01-04T00:46:32;100470.63;;;3.23;100.00
2675;BME280;1347;42.122;24.746;2023-01-04T00:49:00;100475.41;;;3.26;100.00
2675;BME280;1347;42.122;24.746;2023-01-04T00:51:28;100480.25;;;3.29;100.00
2675;BME280;1347;42.122;24.746;2023-01-04T00:53:55;100480.72;;;3.17;100.00
2675;BME280;1347;42.122;24.746;2023-01-04T00:56:23;100475.56;;;3.02;100.00
2675;BME280;1347;42.122;24.746;2023-01-04T00:58:53;100481.84;;;2.97;100.00
2675;BME280;1347;42.122;24.746;2023-01-04T01:01:21;100477.63;;;2.91;100.00
2675;BME280;1347;42.122;24.746;2023-01-04T01:03:52;100486.91;;;2.85;100.00
2675;BME280;1347;42.122;24.746;2023-01-04T01:06:20;100483.09;;;2.86;100.00
2675;BME280;1347;42.122;24.746;2023-01-04T01:08:49;100483.91;;;2.87;100.00
2675;BME280;1347;42.122;24.746;2023-01-04T01:11:16;100480.78;;;2.80;100.00
2675;BME280;1347;42.122;24.746;2023-01-04T01:13:44;100491.19;;;2.73;100.00
2675;BME280;1347;42.122;24.746;2023-01-04T01:16:13;100491.47;;;2.71;100.00
2675;BME280;1347;42.122;24.746;2023-01-04T01:18:42;100475.13;;;2.76;100.00
2675;BME280;1347;42.122;24.746;2023-01-04T01:21:12;100481.16;;;2.73;100.00
2675;BME280;1347;42.122;24.746;2023-01-04T01:23:39;100478.22;;;2.70;100.00
2675;BME280;1347;42.122;24.746;2023-01-04T01:26:11;100483.50;;;2.61;100.00
2675;BME280;1347;42.122;24.746;2023-01-04T01:28:38;100480.00;;;2.61;100.00
2675;BME280;1347;42.122;24.746;2023-01-04T01:31:06;100479.41;;;2.64;100.00
2675;BME280;1347;42.122;24.746;2023-01-04T01:33:35;100477.72;;;2.68;100.00
2675;BME280;1347;42.122;24.746;2023-01-04T01:36:02;100485.03;;;2.67;100.00
2675;BME280;1347;42.122;24.746;2023-01-04T01:38:31;100475.22;;;2.71;100.00
2675;BME280;1347;42.122;24.746;2023-01-04T01:40:58;100470.41;;;2.68;100.00
2675;BME280;1347;42.122;24.746;2023-01-04T01:43:47;100476.91;;;2.67;100.00
2675;BME280;1347;42.122;24.746;2023-01-04T01:46:15;100486.88;;;2.72;100.00
2675;BME280;1347;42.122;24.746;2023-01-04T01:48:43;100480.56;;;2.57;100.00
2675;BME280;1347;42.122;24.746;2023-01-04T01:51:12;100474.44;;;2.52;100.00
2675;BME280;1347;42.122;24.746;2023-01-04T01:53:43;100478.25;;;2.51;100.00
2675;BME280;1347;42.122;24.746;2023-01-04T01:56:11;100478.91;;;2.43;100.00
2675;BME280;1347;42.122;24.746;2023-01-04T01:58:45;100481.75;;;2.51;100.00
2675;BME280;1347;42.122;24.746;2023-01-04T02:01:13;100479.75;;;2.57;100.00
2675;BME280;1347;42.122;24.746;2023-01-04T02:03:41;100478.09;;;2.61;100.00
2675;BME280;1347;42.122;24.746;2023-01-04T02:06:11;100465.81;;;2.50;100.00
2675;BME280;1347;42.122;24.746;2023-01-04T02:08:41;100465.00;;;2.49;100.00
2675;BME280;1347;42.122;24.746;2023-01-04T02:11:08;100466.19;;;2.43;100.00
2675;BME280;1347;42.122;24.746;2023-01-04T02:13:36;100466.91;;;2.49;100.00
2675;BME280;1347;42.122;24.746;2023-01-04T02:16:29;100474.72;;;2.50;100.00
2675;BME280;1347;42.122;24.746;2023-01-04T02:19:06;100468.72;;;2.53;100.00
2675;BME280;1347;42.122;24.746;2023-01-04T02:21:57;100474.16;;;2.53;100.00
2675;BME280;1347;42.122;24.746;2023-01-04T02:24:41;100476.75;;;2.58;100.00
2675;BME280;1347;42.122;24.746;2023-01-04T02:27:35;100464.72;;;2.51;100.00
2675;BME280;1347;42.122;24.746;2023-01-04T02:33:23;100460.91;;;2.33;100.00
2675;BME280;1347;42.122;24.746;2023-01-04T02:35:58;100464.31;;;2.39;100.00
2675;BME280;1347;42.122;24.746;2023-01-04T02:38:43;100464.09;;;2.35;100.00
2675;BME280;1347;42.122;24.746;2023-01-04T02:41:18;100470.56;;;2.39;100.00
2675;BME280;1347;42.122;24.746;2023-01-04T02:43:52;100462.94;;;2.41;100.00
2675;BME280;1347;42.122;24.746;2023-01-04T02:46:42;100464.28;;;2.44;100.00
2675;BME280;1347;42.122;24.746;2023-01-04T02:49:11;100469.59;;;2.49;100.00
2675;BME280;1347;42.122;24.746;2023-01-04T02:51:55;100460.69;;;2.48;100.00
2675;BME280;1347;42.122;24.746;2023-01-04T02:54:24;100471.72;;;2.52;100.00
2675;BME280;1347;42.122;24.746;2023-01-04T02:57:03;100465.66;;;2.60;100.00
2675;BME280;1347;42.122;24.746;2023-01-04T03:00:03;100463.66;;;2.66;100.00
2675;BME280;1347;42.122;24.746;2023-01-04T03:02:55;100474.28;;;2.62;100.00
2675;BME280;1347;42.122;24.746;2023-01-04T03:05:47;100474.56;;;2.61;100.00
2675;BME280;1347;42.122;24.746;2023-01-04T03:08:36;100478.00;;;2.66;100.00
2675;BME280;1347;42.122;24.746;2023-01-04T03:11:06;100487.22;;;2.65;100.00
2675;BME280;1347;42.122;24.746;2023-01-04T03:13:59;100487.22;;;2.65;100.00
2675;BME280;1347;42.122;24.746;2023-01-04T03:16:28;100488.19;;;2.74;100.00
2675;BME280;1347;42.122;24.746;2023-01-04T03:18:57;100498.06;;;2.84;100.00
2675;BME280;1347;42.122;24.746;2023-01-04T03:21:30;100492.94;;;2.82;100.00
2675;BME280;1347;42.122;24.746;2023-01-04T03:23:59;100486.34;;;2.88;100.00
2675;BME280;1347;42.122;24.746;2023-01-04T03:26:47;100494.69;;;2.92;100.00
2675;BME280;1347;42.122;24.746;2023-01-04T03:29:35;100500.00;;;2.97;100.00
2675;BME280;1347;42.122;24.746;2023-01-04T03:32:25;100500.63;;;2.94;100.00
2675;BME280;1347;42.122;24.746;2023-01-04T03:35:10;100496.00;;;2.94;100.00
2675;BME280;1347;42.122;24.746;2023-01-04T03:37:57;100495.84;;;3.05;100.00
2675;BME280;1347;42.122;24.746;2023-01-04T03:40:41;100501.25;;;3.05;100.00
2675;BME280;1347;42.122;24.746;2023-01-04T03:43:31;100499.19;;;2.96;100.00
2675;BME280;1347;42.122;24.746;2023-01-04T03:46:26;100499.00;;;2.93;100.00
2675;BME280;1347;42.122;24.746;2023-01-04T03:49:18;100508.94;;;2.97;100.00
2675;BME280;1347;42.122;24.746;2023-01-04T03:51:51;100499.28;;;2.91;100.00
2675;BME280;1347;42.122;24.746;2023-01-04T03:54:24;100519.34;;;2.90;100.00
2675;BME280;1347;42.122;24.746;2023-01-04T03:56:55;100511.88;;;2.82;100.00
2675;BME280;1347;42.122;24.746;2023-01-04T03:59:23;100501.56;;;2.84;100.00
2675;BME280;1347;42.122;24.746;2023-01-04T04:01:50;100506.25;;;2.79;100.00
2675;BME280;1347;42.122;24.746;2023-01-04T04:04:18;100505.97;;;2.80;100.00
2675;BME280;1347;42.122;24.746;2023-01-04T04:07:03;100513.03;;;2.76;100.00
2675;BME280;1347;42.122;24.746;2023-01-04T04:09:48;100499.59;;;2.71;100.00
2675;BME280;1347;42.122;24.746;2023-01-04T04:12:15;100512.84;;;2.73;100.00
2675;BME280;1347;42.122;24.746;2023-01-04T04:14:42;100507.94;;;2.75;100.00
2675;BME280;1347;42.122;24.746;2023-01-04T04:17:09;100508.81;;;2.70;100.00
2675;BME280;1347;42.122;24.746;2023-01-04T04:19:36;100515.59;;;2.68;100.00
2675;BME280;1347;42.122;24.746;2023-01-04T04:22:03;100512.03;;;2.72;100.00
2675;BME280;1347;42.122;24.746;2023-01-04T04:24:30;100506.00;;;2.75;100.00
2675;BME280;1347;42.122;24.746;2023-01-04T04:26:58;100508.22;;;2.73;100.00
2675;BME280;1347;42.122;24.746;2023-01-04T04:29:25;100511.28;;;2.85;100.00
2675;BME280;1347;42.122;24.746;2023-01-04T04:31:52;100518.41;;;2.81;100.00
2675;BME280;1347;42.122;24.746;2023-01-04T04:34:19;100518.47;;;2.76;100.00
2675;BME280;1347;42.122;24.746;2023-01-04T04:36:46;100524.47;;;2.73;100.00
2675;BME280;1347;42.122;24.746;2023-01-04T04:39:13;100528.28;;;2.72;100.00
2675;BME280;1347;42.122;24.746;2023-01-04T04:41:40;100536.16;;;2.69;100.00
2675;BME280;1347;42.122;24.746;2023-01-04T04:44:09;100530.19;;;2.72;100.00
2675;BME280;1347;42.122;24.746;2023-01-04T04:46:37;100531.13;;;2.62;100.00
2675;BME280;1347;42.122;24.746;2023-01-04T04:49:04;100527.81;;;2.65;100.00
2675;BME280;1347;42.122;24.746;2023-01-04T04:51:33;100530.22;;;2.67;100.00
2675;BME280;1347;42.122;24.746;2023-01-04T04:54:01;100530.22;;;2.48;100.00
2675;BME280;1347;42.122;24.746;2023-01-04T04:56:28;100531.97;;;2.39;100.00
2675;BME280;1347;42.122;24.746;2023-01-04T04:58:55;100539.41;;;2.28;100.00
2675;BME280;1347;42.122;24.746;2023-01-04T05:01:24;100546.56;;;2.19;100.00
2675;BME280;1347;42.122;24.746;2023-01-04T05:03:50;100551.97;;;2.19;100.00
2675;BME280;1347;42.122;24.746;2023-01-04T05:06:18;100552.31;;;2.12;100.00
2675;BME280;1347;42.122;24.746;2023-01-04T05:08:44;100560.22;;;1.80;100.00
2675;BME280;1347;42.122;24.746;2023-01-04T05:11:12;100561.03;;;1.52;100.00
2675;BME280;1347;42.122;24.746;2023-01-04T05:13:39;100566.56;;;1.36;100.00
2675;BME280;1347;42.122;24.746;2023-01-04T05:16:07;100563.59;;;1.33;100.00
2675;BME280;1347;42.122;24.746;2023-01-04T05:18:36;100563.13;;;1.26;100.00
2675;BME280;1347;42.122;24.746;2023-01-04T05:21:03;100573.28;;;1.05;100.00
2675;BME280;1347;42.122;24.746;2023-01-04T05:23:30;100569.09;;;0.84;100.00
2675;BME280;1347;42.122;24.746;2023-01-04T05:25:59;100577.50;;;0.72;100.00
2675;BME280;1347;42.122;24.746;2023-01-04T05:28:28;100578.63;;;0.71;100.00
2675;BME280;1347;42.122;24.746;2023-01-04T05:30:54;100601.28;;;0.70;100.00
2675;BME280;1347;42.122;24.746;2023-01-04T05:33:22;100581.34;;;0.66;100.00
2675;BME280;1347;42.122;24.746;2023-01-04T05:35:52;100592.97;;;0.56;100.00
2675;BME280;1347;42.122;24.746;2023-01-04T05:38:19;100583.28;;;0.55;100.00
2675;BME280;1347;42.122;24.746;2023-01-04T05:40:47;100590.03;;;0.53;100.00
2675;BME280;1347;42.122;24.746;2023-01-04T05:43:14;100588.72;;;0.50;100.00
2675;BME280;1347;42.122;24.746;2023-01-04T05:45:42;100590.03;;;0.53;100.00
2675;BME280;1347;42.122;24.746;2023-01-04T05:48:09;100585.69;;;0.57;100.00
2675;BME280;1347;42.122;24.746;2023-01-04T05:50:36;100594.31;;;0.59;100.00
2675;BME280;1347;42.122;24.746;2023-01-04T05:53:05;100595.69;;;0.56;100.00
2675;BME280;1347;42.122;24.746;2023-01-04T05:55:33;100606.28;;;0.38;100.00
2675;BME280;1347;42.122;24.746;2023-01-04T05:58:00;100600.16;;;0.17;100.00
2675;BME280;1347;42.122;24.746;2023-01-04T06:00:27;100602.56;;;0.13;100.00
2675;BME280;1347;42.122;24.746;2023-01-04T06:02:54;100605.00;;;0.15;100.00
2675;BME280;1347;42.122;24.746;2023-01-04T06:05:21;100602.81;;;0.27;100.00
2675;BME280;1347;42.122;24.746;2023-01-04T06:07:48;100602.22;;;0.40;100.00
2675;BME280;1347;42.122;24.746;2023-01-04T06:10:17;100604.59;;;0.57;100.00
2675;BME280;1347;42.122;24.746;2023-01-04T06:12:45;100614.53;;;0.66;100.00
2675;BME280;1347;42.122;24.746;2023-01-04T06:15:13;100612.31;;;0.73;100.00
2675;BME280;1347;42.122;24.746;2023-01-04T06:17:40;100611.44;;;0.88;100.00
2675;BME280;1347;42.122;24.746;2023-01-04T06:20:08;100614.31;;;1.02;100.00
2675;BME280;1347;42.122;24.746;2023-01-04T06:22:37;100619.38;;;1.14;100.00
2675;BME280;1347;42.122;24.746;2023-01-04T06:25:05;100619.59;;;1.22;100.00
2675;BME280;1347;42.122;24.746;2023-01-04T06:27:33;100627.69;;;1.22;100.00
2675;BME280;1347;42.122;24.746;2023-01-04T06:30:00;100633.00;;;1.37;100.00
2675;BME280;1347;42.122;24.746;2023-01-04T06:32:27;100635.59;;;1.53;100.00
2675;BME280;1347;42.122;24.746;2023-01-04T06:34:54;100637.91;;;1.64;100.00
2675;BME280;1347;42.122;24.746;2023-01-04T06:37:21;100646.00;;;1.69;100.00
2675;BME280;1347;42.122;24.746;2023-01-04T06:39:48;100646.16;;;1.83;100.00
2675;BME280;1347;42.122;24.746;2023-01-04T06:42:15;100649.38;;;1.85;100.00
2675;BME280;1347;42.122;24.746;2023-01-04T06:45:01;100657.41;;;1.95;100.00
2675;BME280;1347;42.122;24.746;2023-01-04T06:47:27;100658.78;;;1.93;100.00
2675;BME280;1347;42.122;24.746;2023-01-04T06:49:54;100655.94;;;2.08;100.00
2675;BME280;1347;42.122;24.746;2023-01-04T06:52:21;100662.00;;;1.95;100.00
2675;BME280;1347;42.122;24.746;2023-01-04T06:54:48;100662.66;;;1.81;100.00
2675;BME280;1347;42.122;24.746;2023-01-04T06:57:16;100669.44;;;1.79;100.00
2675;BME280;1347;42.122;24.746;2023-01-04T06:59:43;100670.09;;;1.95;100.00
2675;BME280;1347;42.122;24.746;2023-01-04T07:02:14;100671.09;;;2.04;100.00
2675;BME280;1347;42.122;24.746;2023-01-04T07:04:41;100660.72;;;2.16;100.00
2675;BME280;1347;42.122;24.746;2023-01-04T07:07:09;100665.50;;;2.24;100.00
2675;BME280;1347;42.122;24.746;2023-01-04T07:09:36;100662.75;;;2.29;100.00
2675;BME280;1347;42.122;24.746;2023-01-04T07:12:04;100655.44;;;2.30;100.00
2675;BME280;1347;42.122;24.746;2023-01-04T07:14:31;100657.97;;;2.45;100.00
2675;BME280;1347;42.122;24.746;2023-01-04T07:16:57;100656.25;;;2.78;100.00
2675;BME280;1347;42.122;24.746;2023-01-04T07:19:26;100652.19;;;2.99;100.00
2675;BME280;1347;42.122;24.746;2023-01-04T07:21:53;100644.06;;;3.18;100.00
2675;BME280;1347;42.122;24.746;2023-01-04T07:24:20;100659.03;;;3.34;100.00
2675;BME280;1347;42.122;24.746;2023-01-04T07:26:47;100659.97;;;3.43;100.00
2675;BME280;1347;42.122;24.746;2023-01-04T07:29:14;100661.03;;;3.61;100.00
2675;BME280;1347;42.122;24.746;2023-01-04T07:31:42;100658.97;;;3.72;100.00
2675;BME280;1347;42.122;24.746;2023-01-04T07:34:09;100653.63;;;3.85;100.00
2675;BME280;1347;42.122;24.746;2023-01-04T07:36:37;100662.50;;;4.04;100.00
2675;BME280;1347;42.122;24.746;2023-01-04T07:39:05;100661.53;;;4.14;100.00
2675;BME280;1347;42.122;24.746;2023-01-04T07:41:35;100666.47;;;4.39;100.00
2675;BME280;1347;42.122;24.746;2023-01-04T07:44:02;100670.31;;;4.66;100.00
2675;BME280;1347;42.122;24.746;2023-01-04T07:46:29;100664.00;;;5.20;100.00
2675;BME280;1347;42.122;24.746;2023-01-04T07:48:56;100676.75;;;7.32;100.00
2675;BME280;1347;42.122;24.746;2023-01-04T07:51:23;100687.53;;;10.61;85.13
2675;BME280;1347;42.122;24.746;2023-01-04T07:53:52;100682.94;;;13.63;74.33
2675;BME280;1347;42.122;24.746;2023-01-04T07:56:19;100683.47;;;16.14;64.20
2675;BME280;1347;42.122;24.746;2023-01-04T07:58:46;100675.81;;;18.20;57.83
2675;BME280;1347;42.122;24.746;2023-01-04T08:01:14;100685.19;;;20.03;53.32
2675;BME280;1347;42.122;24.746;2023-01-04T08:03:44;100685.19;;;21.89;45.27
2675;BME280;1347;42.122;24.746;2023-01-04T08:06:12;100685.06;;;23.07;42.40
2675;BME280;1347;42.122;24.746;2023-01-04T08:08:40;100692.69;;;24.29;40.16
2675;BME280;1347;42.122;24.746;2023-01-04T08:11:10;100694.03;;;24.56;37.70
2675;BME280;1347;42.122;24.746;2023-01-04T08:13:37;100703.88;;;24.81;36.64
2675;BME280;1347;42.122;24.746;2023-01-04T08:16:04;100700.03;;;25.52;36.66
2675;BME280;1347;42.122;24.746;2023-01-04T08:18:31;100695.56;;;26.51;35.07
2675;BME280;1347;42.122;24.746;2023-01-04T08:21:02;100702.97;;;26.95;33.49
2675;BME280;1347;42.122;24.746;2023-01-04T08:23:29;100693.88;;;26.41;33.76
2675;BME280;1347;42.122;24.746;2023-01-04T08:26:01;100693.38;;;27.05;34.55
2675;BME280;1347;42.122;24.746;2023-01-04T08:28:30;100692.69;;;28.14;32.95
2675;BME280;1347;42.122;24.746;2023-01-04T08:30:58;100689.66;;;29.56;32.04
2675;BME280;1347;42.122;24.746;2023-01-04T08:33:29;100696.28;;;30.73;30.82
2675;BME280;1347;42.122;24.746;2023-01-04T08:36:06;100685.19;;;31.32;29.90
2675;BME280;1347;42.122;24.746;2023-01-04T08:38:33;100681.19;;;31.77;28.94
2675;BME280;1347;42.122;24.746;2023-01-04T08:41:00;100683.47;;;31.50;29.08
2675;BME280;1347;42.122;24.746;2023-01-04T08:43:27;100680.63;;;31.50;28.94
2675;BME280;1347;42.122;24.746;2023-01-04T08:45:55;100679.50;;;30.85;29.24
2675;BME280;1347;42.122;24.746;2023-01-04T08:48:22;100674.41;;;29.81;30.27
2675;BME280;1347;42.122;24.746;2023-01-04T08:50:49;100674.97;;;28.84;31.44
2675;BME280;1347;42.122;24.746;2023-01-04T08:53:16;100669.00;;;28.82;31.28
2675;BME280;1347;42.122;24.746;2023-01-04T08:55:48;100669.56;;;28.59;32.06
2675;BME280;1347;42.122;24.746;2023-01-04T08:58:15;100672.06;;;27.73;32.75
2675;BME280;1347;42.122;24.746;2023-01-04T09:00:42;100664.13;;;26.90;33.41
2675;BME280;1347;42.122;24.746;2023-01-04T09:03:10;100655.59;;;26.68;34.38
2675;BME280;1347;42.122;24.746;2023-01-04T09:05:38;100654.22;;;25.97;35.09
2675;BME280;1347;42.122;24.746;2023-01-04T09:08:05;100648.28;;;25.53;36.34
2675;BME280;1347;42.122;24.746;2023-01-04T09:10:32;100651.69;;;25.45;35.95
2675;BME280;1347;42.122;24.746;2023-01-04T09:12:59;100643.22;;;24.71;38.00
2675;BME280;1347;42.122;24.746;2023-01-04T09:15:26;100643.28;;;24.35;38.67
2675;BME280;1347;42.122;24.746;2023-01-04T09:17:53;100641.38;;;24.48;37.77
2675;BME280;1347;42.122;24.746;2023-01-04T09:20:21;100631.94;;;24.58;37.60
2675;BME280;1347;42.122;24.746;2023-01-04T09:22:48;100632.69;;;24.26;38.74
2675;BME280;1347;42.122;24.746;2023-01-04T09:25:15;100628.91;;;23.80;39.76
2675;BME280;1347;42.122;24.746;2023-01-04T09:27:43;100616.66;;;23.31;40.58
2675;BME280;1347;42.122;24.746;2023-01-04T09:30:11;100622.00;;;23.02;41.50
2675;BME280;1347;42.122;24.746;2023-01-04T09:32:38;100614.59;;;22.92;42.33
2675;BME280;1347;42.122;24.746;2023-01-04T09:35:06;100612.75;;;23.29;41.59
2675;BME280;1347;42.122;24.746;2023-01-04T09:37:34;100616.78;;;22.81;41.77
2675;BME280;1347;42.122;24.746;2023-01-04T09:40:02;100605.13;;;23.09;42.18
2675;BME280;1347;42.122;24.746;2023-01-04T09:42:31;100606.53;;;23.97;40.85
2675;BME280;1347;42.122;24.746;2023-01-04T09:45:07;100607.63;;;24.19;39.34
2675;BME280;1347;42.122;24.746;2023-01-04T09:47:38;100598.00;;;24.20;39.51
2675;BME280;1347;42.122;24.746;2023-01-04T09:50:12;100601.53;;;24.04;39.67
2675;BME280;1347;42.122;24.746;2023-01-04T09:52:53;100600.66;;;24.60;39.57
2675;BME280;1347;42.122;24.746;2023-01-04T09:55:25;100591.66;;;24.00;39.62
2675;BME280;1347;42.122;24.746;2023-01-04T09:57:56;100587.38;;;22.96;41.29
2675;BME280;1347;42.122;24.746;2023-01-04T10:00:28;100587.03;;;22.21;42.54
2675;BME280;1347;42.122;24.746;2023-01-04T10:02:57;100573.97;;;21.87;43.73
2675;BME280;1347;42.122;24.746;2023-01-04T10:05:31;100572.78;;;20.42;46.08
2675;BME280;1347;42.122;24.746;2023-01-04T10:08:00;100574.94;;;19.54;48.32
2675;BME280;1347;42.122;24.746;2023-01-04T10:10:40;100566.75;;;18.94;50.13
2675;BME280;1347;42.122;24.746;2023-01-04T10:13:21;100566.66;;;17.62;52.95
2675;BME280;1347;42.122;24.746;2023-01-04T10:15:56;100568.09;;;17.24;54.40
2675;BME280;1347;42.122;24.746;2023-01-04T10:18:34;100557.28;;;17.02;55.13
2675;BME280;1347;42.122;24.746;2023-01-04T10:21:23;100556.38;;;16.83;56.44
2675;BME280;1347;42.122;24.746;2023-01-04T10:24:12;100549.53;;;16.63;56.86
2675;BME280;1347;42.122;24.746;2023-01-04T10:26:47;100556.19;;;16.59;56.78
2675;BME280;1347;42.122;24.746;2023-01-04T10:32:30;100558.47;;;16.49;58.54
2675;BME280;1347;42.122;24.746;2023-01-04T10:34:59;100548.13;;;16.36;58.04
2675;BME280;1347;42.122;24.746;2023-01-04T10:37:31;100550.75;;;16.22;58.73
2675;BME280;1347;42.122;24.746;2023-01-04T10:40:01;100551.41;;;16.04;59.41
2675;BME280;1347;42.122;24.746;2023-01-04T10:42:31;100536.78;;;16.04;59.01
2675;BME280;1347;42.122;24.746;2023-01-04T10:45:09;100548.84;;;15.85;59.74
2675;BME280;1347;42.122;24.746;2023-01-04T10:47:46;100550.66;;;15.70;60.29
2675;BME280;1347;42.122;24.746;2023-01-04T10:50:21;100543.38;;;15.92;60.51
2675;BME280;1347;42.122;24.746;2023-01-04T10:52:54;100542.16;;;15.90;60.09
2675;BME280;1347;42.122;24.746;2023-01-04T10:55:32;100533.00;;;15.82;59.89
2675;BME280;1347;42.122;24.746;2023-01-04T10:58:09;100536.41;;;15.68;60.49
2675;BME280;1347;42.122;24.746;2023-01-04T11:00:43;100514.16;;;15.54;60.34
2675;BME280;1347;42.122;24.746;2023-01-04T11:03:16;100523.75;;;15.64;61.13
2675;BME280;1347;42.122;24.746;2023-01-04T11:05:47;100518.41;;;15.48;61.29
2675;BME280;1347;42.122;24.746;2023-01-04T11:08:20;100532.25;;;15.52;61.23
2675;BME280;1347;42.122;24.746;2023-01-04T11:10:54;100519.50;;;15.40;60.89
2675;BME280;1347;42.122;24.746;2023-01-04T11:13:23;100513.66;;;15.45;60.80
2675;BME280;1347;42.122;24.746;2023-01-04T11:15:51;100512.13;;;15.51;60.88
2675;BME280;1347;42.122;24.746;2023-01-04T11:18:18;100517.28;;;15.53;60.81
2675;BME280;1347;42.122;24.746;2023-01-04T11:20:45;100523.00;;;15.37;61.13
2675;BME280;1347;42.122;24.746;2023-01-04T11:23:14;100525.75;;;15.37;60.88
2675;BME280;1347;42.122;24.746;2023-01-04T11:25:45;100530.41;;;15.29;61.04
2675;BME280;1347;42.122;24.746;2023-01-04T11:28:17;100522.09;;;15.26;60.19
2675;BME280;1347;42.122;24.746;2023-01-04T11:30:54;100525.25;;;15.24;60.39
2675;BME280;1347;42.122;24.746;2023-01-04T11:33:23;100526.56;;;15.37;60.45
2675;BME280;1347;42.122;24.746;2023-01-04T11:35:51;100523.44;;;15.39;60.49
2675;BME280;1347;42.122;24.746;2023-01-04T11:38:21;100516.28;;;15.34;60.48
2675;BME280;1347;42.122;24.746;2023-01-04T11:40:59;100521.47;;;15.39;61.09
2675;BME280;1347;42.122;24.746;2023-01-04T11:43:29;100518.75;;;15.43;60.50
2675;BME280;1347;42.122;24.746;2023-01-04T11:45:59;100520.72;;;15.42;59.90
2675;BME280;1347;42.122;24.746;2023-01-04T11:48:39;100510.03;;;15.41;59.43
2675;BME280;1347;42.122;24.746;2023-01-04T11:51:16;100517.09;;;15.35;59.88
2675;BME280;1347;42.122;24.746;2023-01-04T11:53:43;100513.59;;;15.41;59.40
2675;BME280;1347;42.122;24.746;2023-01-04T11:56:20;100514.22;;;15.61;59.03
2675;BME280;1347;42.122;24.746;2023-01-04T11:59:10;100527.25;;;15.61;58.86
2675;BME280;1347;42.122;24.746;2023-01-04T12:01:39;100518.41;;;15.48;59.27
2675;BME280;1347;42.122;24.746;2023-01-04T12:04:11;100525.50;;;15.49;59.71
2675;BME280;1347;42.122;24.746;2023-01-04T12:06:42;100520.00;;;15.49;59.43
2675;BME280;1347;42.122;24.746;2023-01-04T12:09:13;100518.41;;;15.48;60.17
2675;BME280;1347;42.122;24.746;2023-01-04T12:11:42;100515.31;;;15.53;59.65
2675;BME280;1347;42.122;24.746;2023-01-04T12:14:20;100519.06;;;15.38;59.97
2675;BME280;1347;42.122;24.746;2023-01-04T12:16:52;100514.06;;;15.14;61.11
2675;BME280;1347;42.122;24.746;2023-01-04T12:19:21;100515.38;;;15.27;61.20
2675;BME280;1347;42.122;24.746;2023-01-04T12:21:49;100512.00;;;15.40;60.91
2675;BME280;1347;42.122;24.746;2023-01-04T12:24:19;100513.41;;;15.24;60.48
2675;BME280;1347;42.122;24.746;2023-01-04T12:26:48;100526.53;;;15.34;60.67
2675;BME280;1347;42.122;24.746;2023-01-04T12:29:41;100503.72;;;15.40;59.91
2675;BME280;1347;42.122;24.746;2023-01-04T12:32:40;100506.16;;;15.49;60.10
2675;BME280;1347;42.122;24.746;2023-01-04T12:38:56;100515.25;;;15.50;59.64
2675;BME280;1347;42.122;24.746;2023-01-04T12:47:49;100514.63;;;15.26;59.87
2675;BME280;1347;42.122;24.746;2023-01-04T12:53:58;100504.78;;;14.99;60.42
2675;BME280;1347;42.122;24.746;2023-01-04T12:59:33;100510.06;;;15.11;60.39
2675;BME280;1347;42.122;24.746;2023-01-04T13:02:19;100508.16;;;15.15;60.13
2675;BME280;1347;42.122;24.746;2023-01-04T13:04:49;100516.09;;;15.20;60.29
2675;BME280;1347;42.122;24.746;2023-01-04T13:07:20;100517.38;;;15.26;59.56
2675;BME280;1347;42.122;24.746;2023-01-04T13:09:53;100521.38;;;15.32;59.30
2675;BME280;1347;42.122;24.746;2023-01-04T13:15:37;100523.34;;;15.32;59.03
2675;BME280;1347;42.122;24.746;2023-01-04T13:18:26;100526.06;;;15.28;59.67
2675;BME280;1347;42.122;24.746;2023-01-04T13:20:56;100521.22;;;15.18;60.04
2675;BME280;1347;42.122;24.746;2023-01-04T13:23:25;100519.09;;;15.08;59.72
2675;BME280;1347;42.122;24.746;2023-01-04T13:25:52;100521.13;;;15.11;60.45
2675;BME280;1347;42.122;24.746;2023-01-04T13:28:19;100524.06;;;15.25;60.40
2675;BME280;1347;42.122;24.746;2023-01-04T13:30:48;100525.31;;;15.31;59.88
2675;BME280;1347;42.122;24.746;2023-01-04T13:33:17;100526.41;;;15.23;60.10
2675;BME280;1347;42.122;24.746;2023-01-04T13:36:00;100533.06;;;15.19;59.71
2675;BME280;1347;42.122;24.746;2023-01-04T13:38:30;100525.13;;;15.17;60.18
2675;BME280;1347;42.122;24.746;2023-01-04T13:41:00;100528.66;;;15.14;60.08
2675;BME280;1347;42.122;24.746;2023-01-04T13:43:43;100529.34;;;15.07;60.17
2675;BME280;1347;42.122;24.746;2023-01-04T13:46:18;100517.50;;;15.07;60.35
2675;BME280;1347;42.122;24.746;2023-01-04T13:48:47;100511.47;;;14.94;60.05